createdAt,value
2023-03-29T00:00:00.639Z,0
2023-03-29T00:01:05.462Z,0
2023-03-29T00:02:02.007Z,0
2023-03-29T00:03:01.258Z,0
2023-03-29T00:04:02.628Z,0
2023-03-29T00:05:00.953Z,0
2023-03-29T00:06:09.403Z,0
2023-03-29T00:07:01.086Z,0
2023-03-29T00:08:01.104Z,0
2023-03-29T00:09:01.091Z,0
2023-03-29T00:10:00.683Z,0
2023-03-29T00:11:10.745Z,0
2023-03-29T00:12:01.706Z,0
2023-03-29T00:13:01.437Z,0
2023-03-29T00:14:02.112Z,0
2023-03-29T00:15:01.342Z,0
2023-03-29T00:16:14.072Z,0
2023-03-29T00:17:02.224Z,0
2023-03-29T00:18:01.519Z,0
2023-03-29T00:19:00.948Z,0
2023-03-29T00:20:00.654Z,0
2023-03-29T00:21:00.703Z,0
2023-03-29T00:22:01.075Z,0
2023-03-29T00:23:01.090Z,0
2023-03-29T00:24:01.089Z,0
2023-03-29T00:25:01.308Z,0
2023-03-29T00:26:01.096Z,0
2023-03-29T00:27:01.141Z,0
2023-03-29T00:28:01.122Z,0
2023-03-29T00:29:01.130Z,0
2023-03-29T00:30:01.044Z,0
2023-03-29T00:31:01.242Z,0
2023-03-29T00:32:01.051Z,0
2023-03-29T00:33:01.051Z,0
2023-03-29T00:34:00.496Z,0
2023-03-29T00:35:00.158Z,0
2023-03-29T00:35:59.845Z,0
2023-03-29T00:36:59.538Z,0
2023-03-29T00:38:01.507Z,0
2023-03-29T00:39:01.687Z,0
2023-03-29T00:40:01.075Z,0
2023-03-29T00:41:01.926Z,0
2023-03-29T00:42:01.505Z,0
2023-03-29T00:43:01.420Z,0
2023-03-29T00:44:01.110Z,0
2023-03-29T00:45:00.734Z,0
2023-03-29T00:46:00.459Z,0
2023-03-29T00:47:00.111Z,0
2023-03-29T00:47:59.771Z,0
2023-03-29T00:48:59.391Z,0
2023-03-29T00:50:01.985Z,0
2023-03-29T00:51:01.207Z,0
2023-03-29T00:52:01.372Z,0
2023-03-29T00:53:02.419Z,0
2023-03-29T00:54:01.076Z,0
2023-03-29T00:55:00.675Z,0
2023-03-29T00:56:00.266Z,0
2023-03-29T00:56:59.870Z,0
2023-03-29T00:57:59.455Z,0
2023-03-29T00:59:02.128Z,0
2023-03-29T01:00:01.112Z,0
2023-03-29T01:01:01.269Z,0
2023-03-29T01:02:01.150Z,0
2023-03-29T01:03:01.221Z,0
2023-03-29T01:04:01.222Z,0
2023-03-29T01:05:01.196Z,0
2023-03-29T01:06:02.402Z,0
2023-03-29T01:07:01.196Z,0
2023-03-29T01:08:01.895Z,0
2023-03-29T01:09:01.900Z,0
2023-03-29T01:10:00.885Z,0
2023-03-29T01:11:01.189Z,0
2023-03-29T01:12:01.750Z,0
2023-03-29T01:13:02.642Z,0
2023-03-29T01:14:01.194Z,0
2023-03-29T01:15:00.899Z,0
2023-03-29T01:16:01.224Z,0
2023-03-29T01:17:01.225Z,0
2023-03-29T01:18:02.420Z,0
2023-03-29T01:19:01.155Z,0
2023-03-29T01:20:00.888Z,0
2023-03-29T01:21:01.225Z,0
2023-03-29T01:22:01.438Z,0
2023-03-29T01:23:02.301Z,0
2023-03-29T01:24:01.034Z,0
2023-03-29T01:25:00.667Z,0
2023-03-29T01:26:00.221Z,0
2023-03-29T01:26:59.948Z,0
2023-03-29T01:27:59.553Z,0
2023-03-29T01:29:01.127Z,0.03888888888888889
2023-03-29T01:30:00.819Z,0.03888888888888889
2023-03-29T01:31:00.929Z,0.15833333333333333
2023-03-29T01:32:01.158Z,0
2023-03-29T01:33:01.085Z,0
2023-03-29T01:34:01.152Z,0.19999999999999998
2023-03-29T01:35:00.734Z,0.019444444444444445
2023-03-29T01:36:01.504Z,0
2023-03-29T01:37:01.032Z,0
2023-03-29T01:38:01.419Z,0
2023-03-29T01:39:01.432Z,0
2023-03-29T01:40:01.217Z,0
2023-03-29T01:41:01.268Z,0
2023-03-29T01:42:03.000Z,0.09722222222222221
2023-03-29T01:43:02.526Z,0
2023-03-29T01:44:01.024Z,0
2023-03-29T01:45:00.576Z,0
2023-03-29T01:46:00.273Z,0
2023-03-29T01:47:05.919Z,0
2023-03-29T01:48:02.259Z,0
2023-03-29T01:49:01.038Z,0
2023-03-29T01:50:00.649Z,0.15833333333333333
2023-03-29T01:51:00.565Z,0
2023-03-29T01:52:08.819Z,0
2023-03-29T01:53:01.720Z,0
2023-03-29T01:54:02.454Z,0
2023-03-29T01:55:01.408Z,0
2023-03-29T01:56:01.068Z,0
2023-03-29T01:57:13.624Z,0.049999999999999996
2023-03-29T01:58:02.619Z,0
2023-03-29T01:59:01.281Z,0.075
2023-03-29T02:00:00.906Z,0
2023-03-29T02:01:01.382Z,0.23888888888888887
2023-03-29T02:02:16.246Z,0.08611111111111111
2023-03-29T02:03:05.009Z,0
2023-03-29T02:04:02.155Z,0
2023-03-29T02:05:00.687Z,0
2023-03-29T02:06:00.286Z,0
2023-03-29T02:06:59.882Z,0
2023-03-29T02:07:59.672Z,0
2023-03-29T02:09:01.725Z,0
2023-03-29T02:10:00.938Z,0.19999999999999998
2023-03-29T02:11:01.738Z,0.3972222222222222
2023-03-29T02:12:01.461Z,0.23888888888888887
2023-03-29T02:13:01.095Z,0
2023-03-29T02:14:01.060Z,0.33888888888888885
2023-03-29T02:15:00.669Z,0.3972222222222222
2023-03-29T02:16:00.309Z,0
2023-03-29T02:16:59.953Z,0
2023-03-29T02:17:59.613Z,0
2023-03-29T02:19:01.746Z,0.18888888888888888
2023-03-29T02:20:01.726Z,0.23888888888888887
2023-03-29T02:21:01.913Z,0
2023-03-29T02:22:04.122Z,0.03888888888888889
2023-03-29T02:23:01.148Z,0.11944444444444444
2023-03-29T02:24:01.032Z,0
2023-03-29T02:25:00.613Z,0
2023-03-29T02:26:00.215Z,0
2023-03-29T02:27:00.012Z,0.08055555555555555
2023-03-29T02:27:59.579Z,0
2023-03-29T02:29:01.803Z,0
2023-03-29T02:30:00.450Z,0.17777777777777778
2023-03-29T02:31:00.309Z,0
2023-03-29T02:32:00.152Z,0.08055555555555555
2023-03-29T02:32:59.775Z,0
2023-03-29T02:34:02.496Z,0
2023-03-29T02:35:01.402Z,0
2023-03-29T02:36:01.376Z,0
2023-03-29T02:37:01.420Z,0
2023-03-29T02:38:04.154Z,0
2023-03-29T02:39:01.142Z,0
2023-03-29T02:40:00.694Z,0
2023-03-29T02:41:00.574Z,0
2023-03-29T02:42:00.312Z,0
2023-03-29T02:43:00.029Z,0
2023-03-29T02:43:59.650Z,0
2023-03-29T02:45:01.262Z,0
2023-03-29T02:46:02.535Z,0
2023-03-29T02:47:01.160Z,0
2023-03-29T02:48:01.546Z,0
2023-03-29T02:49:00.883Z,0
2023-03-29T02:50:00.553Z,0
2023-03-29T02:51:00.503Z,0
2023-03-29T02:52:00.575Z,0
2023-03-29T02:53:00.402Z,0.019444444444444445
2023-03-29T02:53:59.995Z,0
2023-03-29T02:54:59.580Z,0
2023-03-29T02:56:01.136Z,0
2023-03-29T02:57:01.209Z,0
2023-03-29T02:58:01.052Z,0
2023-03-29T02:59:01.066Z,0
2023-03-29T03:00:00.637Z,0
2023-03-29T03:01:00.581Z,0
2023-03-29T03:02:00.513Z,0
2023-03-29T03:03:02.045Z,0
2023-03-29T03:04:01.151Z,0
2023-03-29T03:05:00.782Z,0
2023-03-29T03:06:00.371Z,0
2023-03-29T03:06:59.953Z,0
2023-03-29T03:07:59.564Z,0
2023-03-29T03:09:01.820Z,0
2023-03-29T03:10:00.978Z,0
2023-03-29T03:11:01.653Z,0
2023-03-29T03:12:01.525Z,0
2023-03-29T03:13:01.243Z,0
2023-03-29T03:14:00.968Z,0
2023-03-29T03:15:00.597Z,0
2023-03-29T03:16:00.253Z,0
2023-03-29T03:17:02.374Z,0
2023-03-29T03:18:01.243Z,0
2023-03-29T03:19:01.078Z,0
2023-03-29T03:20:00.731Z,0
2023-03-29T03:21:00.529Z,0
2023-03-29T03:22:00.219Z,0
2023-03-29T03:23:05.503Z,0
2023-03-29T03:24:01.957Z,0
2023-03-29T03:25:01.109Z,0
2023-03-29T03:26:01.499Z,0
2023-03-29T03:27:01.122Z,0
2023-03-29T03:28:07.926Z,0.036111111111111115
2023-03-29T03:29:01.021Z,0
2023-03-29T03:30:00.511Z,0
2023-03-29T03:31:00.322Z,0.03888888888888889
2023-03-29T03:32:00.215Z,0
2023-03-29T03:33:10.183Z,0
2023-03-29T03:34:01.238Z,0.11944444444444444
2023-03-29T03:35:01.055Z,0
2023-03-29T03:36:01.603Z,0.18055555555555555
2023-03-29T03:37:01.187Z,0
2023-03-29T03:38:12.771Z,0
2023-03-29T03:39:01.090Z,0.08055555555555555
2023-03-29T03:40:00.707Z,0
2023-03-29T03:41:00.906Z,0
2023-03-29T03:42:01.118Z,0
2023-03-29T03:43:14.676Z,0
2023-03-29T03:44:01.356Z,0
2023-03-29T03:45:01.004Z,0
2023-03-29T03:46:01.279Z,0.15833333333333333
2023-03-29T03:47:01.411Z,0.1527777777777778
2023-03-29T03:48:16.697Z,0.08055555555555555
2023-03-29T03:49:02.117Z,0.31666666666666665
2023-03-29T03:50:00.858Z,0
2023-03-29T03:51:01.308Z,0
2023-03-29T03:52:01.059Z,0.03888888888888889
2023-03-29T03:53:01.066Z,0
2023-03-29T03:54:00.644Z,0.3972222222222222
2023-03-29T03:55:00.255Z,0.08055555555555555
2023-03-29T03:55:59.847Z,0
2023-03-29T03:57:08.079Z,0.15833333333333333
2023-03-29T03:58:02.364Z,0
2023-03-29T03:59:01.145Z,0
2023-03-29T04:00:00.836Z,0
2023-03-29T04:01:01.318Z,0
2023-03-29T04:02:01.072Z,0
2023-03-29T04:03:01.875Z,0
2023-03-29T04:04:01.210Z,0
2023-03-29T04:05:00.584Z,0
2023-03-29T04:06:00.234Z,0.11944444444444444
2023-03-29T04:06:59.811Z,0.11944444444444444
2023-03-29T04:08:01.605Z,0
2023-03-29T04:09:02.170Z,0.11388888888888887
2023-03-29T04:10:01.049Z,0.11944444444444444
2023-03-29T04:11:01.755Z,0.19999999999999998
2023-03-29T04:12:01.109Z,0.15833333333333333
2023-03-29T04:13:01.093Z,0
2023-03-29T04:14:01.108Z,0
2023-03-29T04:15:00.692Z,0
2023-03-29T04:16:01.757Z,0
2023-03-29T04:17:01.522Z,0
2023-03-29T04:18:01.464Z,0
2023-03-29T04:19:01.725Z,0.225
2023-03-29T04:20:01.145Z,0
2023-03-29T04:21:01.366Z,0.19999999999999998
2023-03-29T04:22:02.001Z,0
2023-03-29T04:23:01.455Z,0.27499999999999997
2023-03-29T04:24:01.079Z,0
2023-03-29T04:25:00.659Z,0
2023-03-29T04:26:00.268Z,0.35833333333333334
2023-03-29T04:26:59.835Z,0
2023-03-29T04:28:01.502Z,0
2023-03-29T04:29:01.099Z,0
2023-03-29T04:30:00.683Z,0
2023-03-29T04:31:00.583Z,0
2023-03-29T04:32:01.131Z,0.23888888888888887
2023-03-29T04:33:01.147Z,0.08055555555555555
2023-03-29T04:34:01.459Z,0.19999999999999998
2023-03-29T04:35:00.940Z,0
2023-03-29T04:36:01.843Z,0.15833333333333333
2023-03-29T04:37:01.589Z,0.11944444444444444
2023-03-29T04:38:01.744Z,0.03888888888888889
2023-03-29T04:39:01.851Z,0
2023-03-29T04:40:01.353Z,0.33888888888888885
2023-03-29T04:41:01.491Z,0
2023-03-29T04:42:01.882Z,0.19999999999999998
2023-03-29T04:43:01.775Z,0.11944444444444444
2023-03-29T04:44:01.126Z,0
2023-03-29T04:45:00.887Z,0.23888888888888887
2023-03-29T04:46:01.144Z,0.08055555555555555
2023-03-29T04:47:01.121Z,0
2023-03-29T04:48:01.169Z,0
2023-03-29T04:49:00.706Z,0
2023-03-29T04:50:00.324Z,0
2023-03-29T04:51:00.124Z,0
2023-03-29T04:51:59.811Z,0
2023-03-29T04:53:01.748Z,0
2023-03-29T04:54:01.752Z,0.33888888888888885
2023-03-29T04:55:01.295Z,0.08055555555555555
2023-03-29T04:56:01.982Z,0.15833333333333333
2023-03-29T04:57:00.688Z,0
2023-03-29T04:58:03.299Z,0.2777777777777778
2023-03-29T04:59:01.579Z,0.019444444444444445
2023-03-29T05:00:00.990Z,0
2023-03-29T05:01:01.675Z,0.08055555555555555
2023-03-29T05:02:03.116Z,0
2023-03-29T05:03:02.422Z,0.08055555555555555
2023-03-29T05:04:02.161Z,0
2023-03-29T05:05:01.031Z,0
2023-03-29T05:06:01.143Z,0
2023-03-29T05:07:01.743Z,0
2023-03-29T05:08:01.848Z,0.08055555555555555
2023-03-29T05:09:01.459Z,0.24722222222222223
2023-03-29T05:10:01.184Z,0.15833333333333333
2023-03-29T05:11:01.296Z,0
2023-03-29T05:12:01.062Z,0.11944444444444444
2023-03-29T05:13:01.073Z,0
2023-03-29T05:14:01.080Z,0.024999999999999998
2023-03-29T05:15:00.678Z,0
2023-03-29T05:16:00.330Z,0
2023-03-29T05:17:00.056Z,0.15833333333333333
2023-03-29T05:17:59.907Z,0
2023-03-29T05:19:01.036Z,0
2023-03-29T05:20:00.712Z,0.08055555555555555
2023-03-29T05:21:00.611Z,0
2023-03-29T05:22:00.648Z,0.03888888888888889
2023-03-29T05:23:00.341Z,0.15833333333333333
2023-03-29T05:24:04.078Z,0.075
2023-03-29T05:25:02.884Z,0
2023-03-29T05:26:00.866Z,0.4361111111111111
2023-03-29T05:27:00.697Z,0.03888888888888889
2023-03-29T05:28:00.670Z,0.11944444444444444
2023-03-29T05:29:05.921Z,0.15833333333333333
2023-03-29T05:30:01.997Z,0
2023-03-29T05:31:01.786Z,0
2023-03-29T05:32:01.214Z,0.3972222222222222
2023-03-29T05:33:01.132Z,0.23888888888888887
2023-03-29T05:34:08.430Z,0.41944444444444445
2023-03-29T05:35:00.701Z,0.03888888888888889
2023-03-29T05:36:00.379Z,0
2023-03-29T05:37:00.245Z,0
2023-03-29T05:38:00.219Z,0
2023-03-29T05:39:10.504Z,0
2023-03-29T05:40:06.032Z,0.08055555555555555
2023-03-29T05:41:01.700Z,0.3972222222222222
2023-03-29T05:42:03.850Z,0.07222222222222223
2023-03-29T05:43:01.462Z,0
2023-03-29T05:44:13.391Z,0.1361111111111111
2023-03-29T05:45:01.109Z,0.03888888888888889
2023-03-29T05:46:01.150Z,0.31666666666666665
2023-03-29T05:47:01.793Z,0.08055555555555555
2023-03-29T05:48:01.058Z,0.11944444444444444
2023-03-29T05:49:14.861Z,0
2023-03-29T05:50:00.726Z,0
2023-03-29T05:51:00.668Z,0
2023-03-29T05:52:01.200Z,0
2023-03-29T05:53:01.217Z,0
2023-03-29T05:54:16.769Z,0
2023-03-29T05:55:00.806Z,0
2023-03-29T05:56:01.135Z,0
2023-03-29T05:57:00.784Z,0
2023-03-29T05:58:00.424Z,0.08055555555555555
2023-03-29T05:59:00.025Z,0
2023-03-29T05:59:59.601Z,0
2023-03-29T06:01:01.510Z,0.15833333333333333
2023-03-29T06:02:01.456Z,0.31666666666666665
2023-03-29T06:03:19.940Z,0.15
2023-03-29T06:04:02.336Z,0.31388888888888883
2023-03-29T06:05:01.470Z,0.03888888888888889
2023-03-29T06:06:01.097Z,0.03888888888888889
2023-03-29T06:07:01.096Z,0.2777777777777778
2023-03-29T06:08:01.143Z,0
2023-03-29T06:09:01.125Z,0.03888888888888889
2023-03-29T06:10:00.921Z,0
2023-03-29T06:11:03.812Z,0.15833333333333333
2023-03-29T06:12:01.143Z,0
2023-03-29T06:13:01.363Z,0.35833333333333334
2023-03-29T06:14:01.056Z,0.2777777777777778
2023-03-29T06:15:00.860Z,0.2777777777777778
2023-03-29T06:16:01.065Z,0.03888888888888889
2023-03-29T06:17:00.689Z,0.19999999999999998
2023-03-29T06:18:00.479Z,0.19999999999999998
2023-03-29T06:19:00.356Z,0.19999999999999998
2023-03-29T06:19:59.887Z,0.37777777777777777
2023-03-29T06:20:59.662Z,0.23888888888888887
2023-03-29T06:22:01.757Z,0.31666666666666665
2023-03-29T06:23:01.302Z,0.19999999999999998
2023-03-29T06:24:02.031Z,0.2777777777777778
2023-03-29T06:25:02.780Z,0.4111111111111111
2023-03-29T06:26:01.907Z,0.40555555555555556
2023-03-29T06:27:01.174Z,0.15833333333333333
2023-03-29T06:28:01.174Z,0.11944444444444444
2023-03-29T06:29:01.057Z,0.31666666666666665
2023-03-29T06:30:00.748Z,0.08055555555555555
2023-03-29T06:31:00.775Z,0.19999999999999998
2023-03-29T06:32:01.061Z,0.11944444444444444
2023-03-29T06:33:01.433Z,0.5972222222222222
2023-03-29T06:34:01.431Z,0.31666666666666665
2023-03-29T06:35:01.050Z,0.11944444444444444
2023-03-29T06:36:01.112Z,0.23888888888888887
2023-03-29T06:37:00.776Z,0.19999999999999998
2023-03-29T06:38:00.374Z,0.3972222222222222
2023-03-29T06:38:59.968Z,0.47777777777777775
2023-03-29T06:39:59.492Z,0.17777777777777778
2023-03-29T06:41:01.392Z,0.2777777777777778
2023-03-29T06:42:10.013Z,0.23888888888888887
2023-03-29T06:43:01.489Z,0
2023-03-29T06:44:01.502Z,0.11944444444444444
2023-03-29T06:45:01.147Z,0.14722222222222223
2023-03-29T06:46:01.106Z,0
2023-03-29T06:47:01.040Z,0.08055555555555555
2023-03-29T06:48:01.095Z,0.03888888888888889
2023-03-29T06:49:01.073Z,0.15833333333333333
2023-03-29T06:50:01.078Z,0.19999999999999998
2023-03-29T06:51:01.663Z,0
2023-03-29T06:52:02.594Z,0
2023-03-29T06:53:01.514Z,0.31666666666666665
2023-03-29T06:54:01.152Z,0.03888888888888889
2023-03-29T06:55:00.773Z,0.1388888888888889
2023-03-29T06:56:00.434Z,0.15833333333333333
2023-03-29T06:57:00.249Z,0.19999999999999998
2023-03-29T06:58:02.468Z,0.08055555555555555
2023-03-29T06:59:02.603Z,0.3972222222222222
2023-03-29T07:00:00.529Z,0.22222222222222224
2023-03-29T07:01:00.672Z,0.5972222222222222
2023-03-29T07:02:00.477Z,0
2023-03-29T07:03:00.313Z,0.11944444444444444
2023-03-29T07:04:00.063Z,0
2023-03-29T07:04:59.947Z,0
2023-03-29T07:05:59.538Z,0
2023-03-29T07:07:01.096Z,0.2777777777777778
2023-03-29T07:08:03.821Z,0.41666666666666663
2023-03-29T07:09:01.086Z,0
2023-03-29T07:10:00.671Z,0.09722222222222221
2023-03-29T07:11:00.518Z,0.03888888888888889
2023-03-29T07:12:00.186Z,0.19999999999999998
2023-03-29T07:12:59.871Z,0.31666666666666665
2023-03-29T07:14:01.412Z,0
2023-03-29T07:15:01.012Z,0.20833333333333331
2023-03-29T07:16:01.554Z,0.6027777777777777
2023-03-29T07:17:00.713Z,0
2023-03-29T07:18:00.385Z,0.31666666666666665
2023-03-29T07:19:00.025Z,0.2777777777777778
2023-03-29T07:20:03.423Z,0.20833333333333331
2023-03-29T07:21:01.418Z,0
2023-03-29T07:22:01.186Z,0
2023-03-29T07:23:01.077Z,0
2023-03-29T07:24:01.154Z,0.31666666666666665
2023-03-29T07:25:03.073Z,0
2023-03-29T07:26:01.909Z,0
2023-03-29T07:27:04.464Z,0.2777777777777778
2023-03-29T07:28:01.103Z,0
2023-03-29T07:29:01.111Z,0.15833333333333333
2023-03-29T07:30:06.190Z,0.11944444444444444
2023-03-29T07:31:01.301Z,0.3972222222222222
2023-03-29T07:32:01.142Z,0
2023-03-29T07:33:01.252Z,0.19999999999999998
2023-03-29T07:34:01.062Z,0.19999999999999998
2023-03-29T07:35:09.473Z,0.35833333333333334
2023-03-29T07:36:01.062Z,0.2777777777777778
2023-03-29T07:37:00.765Z,0.31666666666666665
2023-03-29T07:38:00.345Z,0.23888888888888887
2023-03-29T07:39:00.137Z,0
2023-03-29T07:40:11.732Z,0.35833333333333334
2023-03-29T07:41:01.847Z,0.23888888888888887
2023-03-29T07:42:01.102Z,0.23888888888888887
2023-03-29T07:43:01.413Z,0.5166666666666667
2023-03-29T07:44:03.320Z,0.2777777777777778
2023-03-29T07:45:14.770Z,0.19999999999999998
2023-03-29T07:46:01.951Z,0.35555555555555557
2023-03-29T07:47:01.115Z,0.19999999999999998
2023-03-29T07:48:01.209Z,0.11944444444444444
2023-03-29T07:49:01.018Z,0.2777777777777778
2023-03-29T07:50:01.030Z,0.23888888888888887
2023-03-29T07:51:01.360Z,0.15833333333333333
2023-03-29T07:52:01.043Z,0.19999999999999998
2023-03-29T07:53:00.543Z,0.7944444444444444
2023-03-29T07:54:00.260Z,0.15833333333333333
2023-03-29T07:55:00.288Z,0.31666666666666665
2023-03-29T07:55:59.929Z,0.11944444444444444
2023-03-29T07:56:59.581Z,0.08055555555555555
2023-03-29T07:58:01.387Z,0.5972222222222222
2023-03-29T07:59:01.297Z,0.2777777777777778
2023-03-29T08:00:00.983Z,0.31666666666666665
2023-03-29T08:01:01.543Z,0.11944444444444444
2023-03-29T08:02:01.483Z,0.07222222222222223
2023-03-29T08:03:01.162Z,0.7138888888888888
2023-03-29T08:04:01.189Z,0.35833333333333334
2023-03-29T08:05:00.886Z,0.08055555555555555
2023-03-29T08:06:01.149Z,0.23888888888888887
2023-03-29T08:07:01.046Z,0.5166666666666667
2023-03-29T08:08:01.142Z,0
2023-03-29T08:09:01.343Z,0.15833333333333333
2023-03-29T08:10:01.044Z,0.2777777777777778
2023-03-29T08:11:01.629Z,0.49444444444444446
2023-03-29T08:12:02.264Z,0.5416666666666666
2023-03-29T08:13:01.783Z,0.31666666666666665
2023-03-29T08:14:01.021Z,0.23888888888888887
2023-03-29T08:15:01.104Z,0.3972222222222222
2023-03-29T08:16:01.108Z,0.3972222222222222
2023-03-29T08:17:01.164Z,0.675
2023-03-29T08:18:01.882Z,0.8333333333333333
2023-03-29T08:19:03.932Z,0.23888888888888887
2023-03-29T08:20:01.135Z,0.5166666666666667
2023-03-29T08:21:01.486Z,0.2777777777777778
2023-03-29T08:22:02.087Z,0.5555555555555556
2023-03-29T08:23:01.340Z,0.4361111111111111
2023-03-29T08:24:01.048Z,0.35833333333333334
2023-03-29T08:25:00.663Z,0.19999999999999998
2023-03-29T08:26:00.345Z,0.7138888888888888
2023-03-29T08:26:59.921Z,0.6361111111111111
2023-03-29T08:27:59.639Z,0.47777777777777775
2023-03-29T08:29:01.457Z,0.7527777777777778
2023-03-29T08:30:01.931Z,0.40277777777777773
2023-03-29T08:31:01.999Z,0.4361111111111111
2023-03-29T08:32:01.358Z,0.19999999999999998
2023-03-29T08:33:02.068Z,1.2722222222222221
2023-03-29T08:34:01.979Z,0.875
2023-03-29T08:35:00.723Z,0.47777777777777775
2023-03-29T08:36:00.359Z,0.47777777777777775
2023-03-29T08:36:59.991Z,0.31666666666666665
2023-03-29T08:37:59.685Z,0.9138888888888889
2023-03-29T08:39:01.848Z,0.31666666666666665
2023-03-29T08:40:01.478Z,0.47777777777777775
2023-03-29T08:41:01.342Z,0.49722222222222223
2023-03-29T08:42:01.064Z,0.4361111111111111
2023-03-29T08:43:01.084Z,0.3972222222222222
2023-03-29T08:44:01.355Z,0.31666666666666665
2023-03-29T08:45:00.775Z,0.19999999999999998
2023-03-29T08:46:00.453Z,0.4555555555555555
2023-03-29T08:47:00.209Z,0.23888888888888887
2023-03-29T08:47:59.956Z,0.2777777777777778
2023-03-29T08:48:59.504Z,0.31666666666666665
2023-03-29T08:50:01.101Z,0.23888888888888887
2023-03-29T08:51:01.398Z,0.29444444444444445
2023-03-29T08:52:01.427Z,0.3972222222222222
2023-03-29T08:53:01.025Z,0.675
2023-03-29T08:54:01.120Z,0.5166666666666667
2023-03-29T08:55:01.152Z,0.31666666666666665
2023-03-29T08:56:03.860Z,0.30833333333333335
2023-03-29T08:57:01.090Z,0.5972222222222222
2023-03-29T08:58:01.779Z,0.9527777777777778
2023-03-29T08:59:01.083Z,1.0722222222222222
2023-03-29T09:00:00.777Z,0.6361111111111111
2023-03-29T09:01:00.863Z,0.5416666666666666
2023-03-29T09:02:01.358Z,0.2777777777777778
2023-03-29T09:03:02.710Z,0.26944444444444443
2023-03-29T09:04:02.165Z,0.23888888888888887
2023-03-29T09:05:01.528Z,0.31666666666666665
2023-03-29T09:06:03.249Z,0.7388888888888889
2023-03-29T09:07:01.122Z,0.47777777777777775
2023-03-29T09:08:01.136Z,0.7138888888888888
2023-03-29T09:09:01.118Z,0.4361111111111111
2023-03-29T09:10:01.279Z,0.6361111111111111
2023-03-29T09:11:05.430Z,0.39444444444444443
2023-03-29T09:12:01.422Z,0.2916666666666667
2023-03-29T09:13:01.185Z,0.5555555555555556
2023-03-29T09:14:01.859Z,1.0333333333333334
2023-03-29T09:15:01.924Z,0.3972222222222222
2023-03-29T09:16:08.880Z,0.5527777777777778
2023-03-29T09:17:00.655Z,0.4361111111111111
2023-03-29T09:18:00.383Z,0.875
2023-03-29T09:18:59.911Z,0.675
2023-03-29T09:19:59.653Z,0.2777777777777778
2023-03-29T09:21:11.562Z,1.3166666666666667
2023-03-29T09:22:01.093Z,0.6361111111111111
2023-03-29T09:23:01.131Z,0.19999999999999998
2023-03-29T09:24:01.104Z,0.11944444444444444
2023-03-29T09:25:01.743Z,0.7555555555555555
2023-03-29T09:26:15.273Z,0.775
2023-03-29T09:27:01.189Z,0.3972222222222222
2023-03-29T09:28:01.259Z,0.3972222222222222
2023-03-29T09:29:02.503Z,0.5888888888888889
2023-03-29T09:30:01.156Z,0.6361111111111111
2023-03-29T09:31:17.144Z,1.4694444444444443
2023-03-29T09:32:01.122Z,0.4361111111111111
2023-03-29T09:33:01.089Z,0.4361111111111111
2023-03-29T09:34:01.756Z,0.5972222222222222
2023-03-29T09:35:00.700Z,0.47777777777777775
2023-03-29T09:36:00.293Z,0.5555555555555556
2023-03-29T09:36:59.954Z,0.4361111111111111
2023-03-29T09:37:59.652Z,1.4305555555555556
2023-03-29T09:39:01.795Z,0.2777777777777778
2023-03-29T09:40:03.118Z,0.7555555555555555
2023-03-29T09:41:01.775Z,0.35833333333333334
2023-03-29T09:42:01.923Z,0.2777777777777778
2023-03-29T09:43:01.560Z,0.5
2023-03-29T09:44:01.036Z,0.23888888888888887
2023-03-29T09:45:01.056Z,0.5555555555555556
2023-03-29T09:46:01.088Z,0.23888888888888887
2023-03-29T09:47:01.053Z,0.23888888888888887
2023-03-29T09:48:01.088Z,0.6361111111111111
2023-03-29T09:49:01.064Z,0.7555555555555555
2023-03-29T09:50:01.082Z,0.4361111111111111
2023-03-29T09:51:01.394Z,0.2777777777777778
2023-03-29T09:52:01.489Z,0.8444444444444444
2023-03-29T09:53:01.105Z,0.5166666666666667
2023-03-29T09:54:01.255Z,1.0333333333333334
2023-03-29T09:55:01.134Z,0.7555555555555555
2023-03-29T09:56:01.248Z,0.5555555555555556
2023-03-29T09:57:01.142Z,0.19999999999999998
2023-03-29T09:58:01.129Z,0.9944444444444445
2023-03-29T09:59:01.253Z,0.47777777777777775
2023-03-29T10:00:01.344Z,0.8333333333333333
2023-03-29T10:01:01.932Z,0.2833333333333333
2023-03-29T10:02:02.080Z,0.7944444444444444
2023-03-29T10:03:01.093Z,1.55
2023-03-29T10:04:01.155Z,0.3972222222222222
2023-03-29T10:05:01.451Z,0.4361111111111111
2023-03-29T10:06:02.148Z,0.7555555555555555
2023-03-29T10:07:01.491Z,0.6722222222222222
2023-03-29T10:08:01.065Z,0.23888888888888887
2023-03-29T10:09:01.106Z,0.9138888888888889
2023-03-29T10:10:01.111Z,0.875
2023-03-29T10:11:01.085Z,0.675
2023-03-29T10:12:00.686Z,0.5555555555555556
2023-03-29T10:13:00.410Z,0.9138888888888889
2023-03-29T10:14:00.127Z,0.31666666666666665
2023-03-29T10:14:59.796Z,2.7805555555555554
2023-03-29T10:16:01.935Z,1.9472222222222222
2023-03-29T10:17:01.090Z,0.47777777777777775
2023-03-29T10:18:00.932Z,0.875
2023-03-29T10:19:01.063Z,0.6361111111111111
2023-03-29T10:20:03.769Z,0.2777777777777778
2023-03-29T10:21:01.403Z,0.5555555555555556
2023-03-29T10:22:01.202Z,0.3972222222222222
2023-03-29T10:23:01.450Z,0.21944444444444444
2023-03-29T10:24:01.202Z,0.9944444444444445
2023-03-29T10:25:01.117Z,0.2777777777777778
2023-03-29T10:26:01.103Z,0.5555555555555556
2023-03-29T10:27:01.034Z,0.25833333333333336
2023-03-29T10:28:01.463Z,0.47777777777777775
2023-03-29T10:29:00.692Z,0.35833333333333334
2023-03-29T10:30:00.399Z,1.35
2023-03-29T10:31:00.268Z,0.675
2023-03-29T10:32:00.035Z,1.611111111111111
2023-03-29T10:32:59.823Z,0.9944444444444445
2023-03-29T10:33:59.490Z,1.0722222222222222
2023-03-29T10:35:01.067Z,1.1111111111111112
2023-03-29T10:36:01.111Z,0.31666666666666665
2023-03-29T10:37:01.379Z,1.0583333333333333
2023-03-29T10:38:00.557Z,0.675
2023-03-29T10:39:00.422Z,0.8333333333333333
2023-03-29T10:40:01.451Z,0.9138888888888889
2023-03-29T10:41:02.374Z,0.7944444444444444
2023-03-29T10:42:01.506Z,1.0694444444444444
2023-03-29T10:43:01.220Z,0.31666666666666665
2023-03-29T10:44:01.035Z,0.47777777777777775
2023-03-29T10:45:01.087Z,0.3972222222222222
2023-03-29T10:46:01.105Z,0.5555555555555556
2023-03-29T10:47:04.025Z,0.4305555555555556
2023-03-29T10:48:01.187Z,0.31666666666666665
2023-03-29T10:49:01.042Z,1.55
2023-03-29T10:50:01.148Z,0.9944444444444445
2023-03-29T10:51:01.310Z,0.31666666666666665
2023-03-29T10:52:06.542Z,0.5166666666666667
2023-03-29T10:53:02.122Z,0.4361111111111111
2023-03-29T10:54:01.269Z,0.9527777777777778
2023-03-29T10:55:01.080Z,0.3972222222222222
2023-03-29T10:56:01.094Z,1.0722222222222222
2023-03-29T10:57:09.781Z,0.775
2023-03-29T10:58:01.491Z,0.23888888888888887